createdAt,value
2024-05-09T00:00:30.418Z,58.84
2024-05-09T00:03:02.849Z,58.31
2024-05-09T00:05:29.944Z,57.55
2024-05-09T00:07:56.936Z,57.70
2024-05-09T00:10:32.652Z,58.05
2024-05-09T00:13:02.753Z,57.71
2024-05-09T00:15:29.680Z,57.43
2024-05-09T00:17:56.713Z,57.56
2024-05-09T00:20:28.614Z,58.74
2024-05-09T00:23:03.311Z,58.68
2024-05-09T00:25:30.274Z,58.84
2024-05-09T00:27:57.194Z,59.21
2024-05-09T00:30:31.685Z,59.25
2024-05-09T00:33:02.330Z,59.43
2024-05-09T00:35:29.664Z,58.56
2024-05-09T00:37:56.788Z,58.71
2024-05-09T00:40:34.723Z,58.56
2024-05-09T00:43:05.863Z,58.40
2024-05-09T00:45:32.829Z,58.00
2024-05-09T00:47:59.944Z,57.60
2024-05-09T00:50:35.341Z,57.89
2024-05-09T00:53:04.029Z,58.37
2024-05-09T00:55:30.983Z,58.72
2024-05-09T00:57:57.890Z,58.99
2024-05-09T01:00:31.611Z,58.95
2024-05-09T01:03:05.343Z,59.29
2024-05-09T01:05:32.753Z,59.47
2024-05-09T01:07:59.804Z,59.95
2024-05-09T01:10:33.672Z,60.56
2024-05-09T01:13:02.229Z,60.39
2024-05-09T01:15:29.153Z,59.85
2024-05-09T01:17:56.500Z,59.83
2024-05-09T01:20:32.230Z,59.83
2024-05-09T01:23:07.393Z,60.41
2024-05-09T01:25:34.519Z,60.60
2024-05-09T01:28:01.416Z,61.17
2024-05-09T01:30:34.329Z,61.04
2024-05-09T01:33:04.042Z,60.84
2024-05-09T01:35:31.402Z,60.04
2024-05-09T01:37:58.470Z,60.31
2024-05-09T01:40:35.402Z,61.22
2024-05-09T01:43:05.509Z,61.35
2024-05-09T01:45:32.426Z,61.03
2024-05-09T01:47:59.609Z,61.53
2024-05-09T01:50:37.382Z,61.54
2024-05-09T01:53:07.892Z,61.96
2024-05-09T01:55:34.899Z,61.97
2024-05-09T01:58:01.818Z,62.45
2024-05-09T02:00:34.630Z,63.43
2024-05-09T02:03:06.856Z,62.68
2024-05-09T02:05:34.071Z,61.98
2024-05-09T02:08:01.082Z,62.16
2024-05-09T02:10:32.642Z,61.82
2024-05-09T02:13:00.333Z,61.39
2024-05-09T02:15:27.306Z,61.81
2024-05-09T02:17:54.483Z,62.05
2024-05-09T02:22:51.468Z,61.93
2024-05-09T02:25:18.418Z,61.47
2024-05-09T02:27:45.368Z,62.48
2024-05-09T02:30:18.640Z,62.54
2024-05-09T02:32:53.107Z,62.12
2024-05-09T02:35:20.303Z,61.51
2024-05-09T02:37:47.329Z,61.07
2024-05-09T02:40:15.156Z,60.67
2024-05-09T02:42:48.356Z,60.47
2024-05-09T02:45:15.279Z,60.44
2024-05-09T02:47:42.317Z,61.21
2024-05-09T02:50:13.261Z,60.56
2024-05-09T02:52:43.051Z,60.22
2024-05-09T02:55:10.031Z,59.58
2024-05-09T02:57:36.971Z,60.93
2024-05-09T03:00:05.980Z,60.53
2024-05-09T03:02:33.315Z,61.55
2024-05-09T03:05:00.302Z,60.93
2024-05-09T03:07:27.227Z,61.12
2024-05-09T03:09:54.159Z,60.69
2024-05-09T03:12:21.127Z,60.11
2024-05-09T03:14:48.102Z,60.70
2024-05-09T03:17:15.082Z,60.09
2024-05-09T03:19:42.028Z,59.91
2024-05-09T03:22:08.967Z,60.28
2024-05-09T03:24:35.871Z,60.19
2024-05-09T03:27:02.791Z,60.24
2024-05-09T03:29:29.791Z,60.62
2024-05-09T03:31:56.844Z,60.57
2024-05-09T03:34:23.862Z,61.08
2024-05-09T03:36:50.826Z,60.19
2024-05-09T03:39:17.751Z,60.51
2024-05-09T03:41:44.671Z,59.96
2024-05-09T03:44:11.632Z,59.34
2024-05-09T03:46:38.617Z,60.14
2024-05-09T03:49:05.623Z,61.62
2024-05-09T03:51:32.635Z,61.29
2024-05-09T03:53:59.565Z,61.62
2024-05-09T03:56:26.672Z,60.98
2024-05-09T03:58:53.716Z,61.57
2024-05-09T04:01:20.843Z,60.83
2024-05-09T04:03:47.899Z,61.08
2024-05-09T04:06:14.927Z,60.60
2024-05-09T04:08:41.867Z,60.16
2024-05-09T04:11:08.914Z,60.44
2024-05-09T04:13:35.910Z,61.03
2024-05-09T04:16:02.818Z,59.78
2024-05-09T04:18:29.841Z,59.88
2024-05-09T04:20:56.899Z,60.12
2024-05-09T04:23:23.895Z,59.78
2024-05-09T04:25:50.851Z,59.41
2024-05-09T04:28:17.821Z,59.92
2024-05-09T04:30:44.746Z,59.66
2024-05-09T04:33:13.547Z,60.01
2024-05-09T04:35:41.542Z,59.82
2024-05-09T04:38:08.532Z,59.88
2024-05-09T04:40:37.127Z,59.71
2024-05-09T04:43:04.736Z,59.88
2024-05-09T04:45:31.665Z,59.62
2024-05-09T04:47:58.972Z,60.94
2024-05-09T04:50:35.209Z,60.93
2024-05-09T04:53:05.494Z,60.52
2024-05-09T04:55:32.752Z,61.03
2024-05-09T04:57:59.668Z,60.83
2024-05-09T05:00:34.670Z,61.00
2024-05-09T05:03:04.277Z,62.23
2024-05-09T05:05:31.455Z,61.32
2024-05-09T05:07:58.499Z,62.20
2024-05-09T05:10:29.726Z,61.93
2024-05-09T05:13:02.537Z,61.84
2024-05-09T05:15:29.480Z,60.59
2024-05-09T05:17:56.753Z,60.04
2024-05-09T05:20:30.943Z,59.96
2024-05-09T05:23:00.712Z,58.90
2024-05-09T05:25:27.823Z,59.73
2024-05-09T05:27:54.759Z,59.38
2024-05-09T05:30:28.673Z,59.14
2024-05-09T05:32:59.839Z,59.00
2024-05-09T05:35:27.287Z,59.52
2024-05-09T05:37:54.357Z,59.22
2024-05-09T05:40:28.346Z,59.15
2024-05-09T05:43:02.455Z,58.60
2024-05-09T05:45:29.383Z,58.82
2024-05-09T05:47:56.647Z,59.32
2024-05-09T05:50:28.174Z,59.65
2024-05-09T05:53:02.387Z,59.41
2024-05-09T05:55:29.330Z,59.51
2024-05-09T05:57:56.242Z,59.77
2024-05-09T06:00:29.857Z,59.16
2024-05-09T06:03:04.423Z,59.22
2024-05-09T06:05:31.727Z,58.98
2024-05-09T06:07:58.832Z,59.08
2024-05-09T06:10:30.261Z,59.17
2024-05-09T06:13:04.294Z,58.46
2024-05-09T06:15:31.243Z,59.06
2024-05-09T06:17:58.450Z,58.58
2024-05-09T06:20:34.614Z,57.77
2024-05-09T06:23:04.290Z,57.03
2024-05-09T06:25:31.316Z,56.39
2024-05-09T06:27:58.254Z,54.63
2024-05-09T06:30:30.768Z,54.44
2024-05-09T06:33:05.160Z,53.52
2024-05-09T06:35:32.548Z,52.35
2024-05-09T06:37:59.634Z,51.39
2024-05-09T06:40:35.929Z,51.89
2024-05-09T06:43:05.662Z,51.07
2024-05-09T06:45:32.649Z,50.27
2024-05-09T06:47:59.901Z,50.22
2024-05-09T06:50:31.112Z,50.13
2024-05-09T06:53:02.723Z,49.82
2024-05-09T06:55:29.782Z,49.52
2024-05-09T06:57:56.758Z,50.18
2024-05-09T07:00:30.733Z,49.18
2024-05-09T07:03:05.992Z,48.75
2024-05-09T07:05:33.230Z,48.55
2024-05-09T07:08:00.392Z,48.26
2024-05-09T07:10:33.045Z,48.87
2024-05-09T07:13:02.306Z,47.75
2024-05-09T07:15:29.235Z,47.13
2024-05-09T07:17:56.426Z,47.37
2024-05-09T07:20:32.114Z,46.61
2024-05-09T07:23:01.798Z,46.48
2024-05-09T07:25:28.976Z,46.29
2024-05-09T07:27:55.973Z,46.11
2024-05-09T07:30:27.825Z,45.75
2024-05-09T07:33:00.628Z,45.18
2024-05-09T07:35:27.975Z,45.88
2024-05-09T07:37:55.064Z,45.49
2024-05-09T07:40:31.588Z,45.97
2024-05-09T07:43:02.457Z,45.92
2024-05-09T07:45:45.670Z,45.76
2024-05-09T07:49:45.430Z,45.17
2024-05-09T07:53:40.896Z,43.96
2024-05-09T07:56:12.245Z,43.67
2024-05-09T07:58:39.510Z,42.95
2024-05-09T08:01:06.813Z,42.49
2024-05-09T08:03:34.333Z,41.75
2024-05-09T08:06:01.452Z,41.68
2024-05-09T08:08:28.399Z,39.63
2024-05-09T08:10:55.383Z,38.76
2024-05-09T08:13:22.429Z,38.24
2024-05-09T08:15:49.625Z,37.92
2024-05-09T08:18:16.644Z,36.91
2024-05-09T08:20:43.658Z,36.52
2024-05-09T08:23:10.615Z,35.37
2024-05-09T08:25:37.536Z,35.01
2024-05-09T08:28:04.571Z,36.39
2024-05-09T08:30:36.780Z,35.28
2024-05-09T08:33:05.634Z,34.64
2024-05-09T08:35:33.228Z,33.08
2024-05-09T08:38:00.330Z,32.68
2024-05-09T08:40:33.705Z,31.57
2024-05-09T08:43:03.255Z,31.12
2024-05-09T08:45:30.418Z,30.16
2024-05-09T08:47:57.525Z,32.13
2024-05-09T08:50:32.202Z,32.91
2024-05-09T08:53:05.211Z,33.82
2024-05-09T08:55:32.200Z,37.79
2024-05-09T08:57:59.213Z,37.98
2024-05-09T09:00:34.111Z,32.09
2024-05-09T09:03:04.105Z,29.24
2024-05-09T09:05:31.436Z,31.23
2024-05-09T09:07:58.645Z,31.24
2024-05-09T09:10:31.761Z,32.19
2024-05-09T09:13:00.012Z,34.46
2024-05-09T09:15:27.021Z,31.86
2024-05-09T09:17:54.108Z,34.68
2024-05-09T09:20:26.428Z,31.64
2024-05-09T09:23:00.452Z,30.85
2024-05-09T09:25:27.360Z,33.82
2024-05-09T09:27:54.351Z,35.75
2024-05-09T09:30:34.419Z,34.87
2024-05-09T09:33:04.682Z,35.68
2024-05-09T09:35:31.809Z,34.93
2024-05-09T09:37:58.734Z,38.17
2024-05-09T09:40:31.669Z,38.01
2024-05-09T09:43:00.145Z,38.88
2024-05-09T09:45:27.196Z,38.09
2024-05-09T09:47:54.339Z,36.32
2024-05-09T09:50:27.697Z,31.81
2024-05-09T09:53:00.712Z,29.55
2024-05-09T09:55:27.669Z,32.80
2024-05-09T09:57:54.672Z,33.82
2024-05-09T10:00:27.119Z,29.30
2024-05-09T10:02:59.195Z,33.15
2024-05-09T10:05:26.472Z,31.19
2024-05-09T10:07:53.684Z,30.22
2024-05-09T10:10:27.082Z,28.67
2024-05-09T10:12:58.610Z,31.98
2024-05-09T10:15:25.579Z,33.14
2024-05-09T10:17:52.551Z,33.43
2024-05-09T10:20:22.189Z,31.96
2024-05-09T10:22:54.637Z,32.23
2024-05-09T10:25:21.717Z,31.18
2024-05-09T10:27:48.777Z,30.98
2024-05-09T10:30:21.661Z,31.72
2024-05-09T10:32:56.489Z,32.16
2024-05-09T10:35:23.517Z,34.03
2024-05-09T10:37:50.424Z,34.39
2024-05-09T10:40:23.246Z,35.05
2024-05-09T10:42:55.754Z,35.23
2024-05-09T10:45:22.664Z,36.23
2024-05-09T10:47:49.693Z,33.66
2024-05-09T10:50:22.625Z,35.89
2024-05-09T10:52:55.540Z,33.40
2024-05-09T10:55:22.521Z,35.31
2024-05-09T10:57:49.645Z,35.10
2024-05-09T11:00:26.989Z,33.94
2024-05-09T11:02:57.420Z,35.62
2024-05-09T11:05:24.595Z,35.26
2024-05-09T11:07:51.581Z,36.15
2024-05-09T11:10:27.095Z,36.87
2024-05-09T11:12:58.751Z,37.58
2024-05-09T11:15:25.684Z,36.31
2024-05-09T11:17:52.769Z,37.47
2024-05-09T11:20:26.717Z,37.57
2024-05-09T11:22:56.664Z,38.50
2024-05-09T11:25:23.623Z,38.99
2024-05-09T11:27:50.639Z,39.27
2024-05-09T11:30:24.255Z,39.11
2024-05-09T11:32:57.055Z,38.70
2024-05-09T11:35:24.055Z,39.87
2024-05-09T11:37:51.000Z,40.49
2024-05-09T11:40:25.210Z,40.17
2024-05-09T11:42:55.448Z,39.56
2024-05-09T11:45:22.403Z,39.88
2024-05-09T11:47:49.539Z,40.86
2024-05-09T11:50:26.675Z,41.38
2024-05-09T11:52:57.108Z,41.37
2024-05-09T11:55:27.422Z,41.77
2024-05-09T11:57:55.364Z,42.27
2024-05-09T12:00:29.694Z,42.98
2024-05-09T12:03:03.511Z,43.17
2024-05-09T12:05:30.561Z,42.70
2024-05-09T12:07:57.582Z,41.00
2024-05-09T12:10:32.555Z,41.33
2024-05-09T12:13:02.687Z,41.81
2024-05-09T12:15:30.324Z,41.31
2024-05-09T12:17:59.952Z,39.79
2024-05-09T12:20:35.677Z,40.24
2024-05-09T12:23:05.630Z,40.49
2024-05-09T12:25:32.628Z,40.56
2024-05-09T12:27:59.677Z,39.41
2024-05-09T12:30:35.426Z,40.15
2024-05-09T12:33:06.127Z,40.05
2024-05-09T12:35:33.336Z,39.31
2024-05-09T12:38:00.399Z,43.08
2024-05-09T12:40:35.452Z,41.23
2024-05-09T12:43:05.331Z,45.26
2024-05-09T12:45:32.566Z,40.69
2024-05-09T12:47:59.727Z,40.42
2024-05-09T12:50:32.434Z,40.17
2024-05-09T12:53:01.462Z,40.69
2024-05-09T12:55:31.819Z,41.18
2024-05-09T12:58:04.525Z,41.56
2024-05-09T13:00:34.061Z,40.67
2024-05-09T13:03:01.780Z,42.02
2024-05-09T13:05:29.517Z,42.00
2024-05-09T13:07:57.279Z,40.98
2024-05-09T13:10:31.177Z,41.93
2024-05-09T13:13:00.486Z,41.46
2024-05-09T13:15:27.978Z,42.17
2024-05-09T13:17:57.912Z,41.00
2024-05-09T13:20:32.689Z,40.34
2024-05-09T13:23:02.053Z,41.39
2024-05-09T13:25:29.067Z,41.45
2024-05-09T13:27:56.056Z,40.63
2024-05-09T13:30:29.755Z,40.42
2024-05-09T13:33:05.903Z,41.05
2024-05-09T13:35:33.393Z,41.58
2024-05-09T13:38:00.326Z,41.33
2024-05-09T13:40:33.094Z,42.10
2024-05-09T13:43:02.511Z,42.37
2024-05-09T13:45:29.617Z,42.30
2024-05-09T13:47:56.980Z,42.74
2024-05-09T13:50:33.020Z,42.57
2024-05-09T13:53:02.893Z,41.74
2024-05-09T13:55:29.824Z,41.63
2024-05-09T13:57:56.887Z,41.55
2024-05-09T14:02:53.758Z,41.61
2024-05-09T14:05:20.923Z,41.80
2024-05-09T14:07:48.025Z,41.65
2024-05-09T14:10:22.694Z,42.08
2024-05-09T14:12:53.017Z,42.29
2024-05-09T14:15:19.957Z,42.31
2024-05-09T14:17:46.920Z,42.18
2024-05-09T14:20:16.717Z,42.06
2024-05-09T14:22:50.202Z,41.57
2024-05-09T14:29:42.153Z,42.55
2024-05-09T14:32:09.073Z,42.58
2024-05-09T14:34:36.092Z,43.29
2024-05-09T14:37:03.165Z,42.29
2024-05-09T14:39:30.142Z,42.69
2024-05-09T14:44:38.561Z,41.80
2024-05-09T14:47:05.588Z,42.40
2024-05-09T14:49:32.544Z,43.56
2024-05-09T14:51:59.550Z,43.57
2024-05-09T14:54:26.561Z,43.20
2024-05-09T14:56:54.452Z,42.95
2024-05-09T14:59:24.354Z,43.22
2024-05-09T15:01:51.510Z,41.72
2024-05-09T15:04:18.921Z,41.77
2024-05-09T15:06:47.163Z,41.88
2024-05-09T15:09:15.124Z,42.30
2024-05-09T15:11:42.450Z,42.75
2024-05-09T15:14:09.567Z,42.88
2024-05-09T15:16:36.529Z,43.01
2024-05-09T15:19:06.689Z,43.34
2024-05-09T15:21:33.715Z,42.33
2024-05-09T15:24:03.655Z,42.86
2024-05-09T15:26:30.562Z,43.39
2024-05-09T15:28:58.859Z,43.61
2024-05-09T15:31:26.923Z,43.90
2024-05-09T15:33:57.331Z,43.78
2024-05-09T15:36:27.287Z,43.16
2024-05-09T15:38:54.292Z,42.94
2024-05-09T15:41:21.276Z,42.67
2024-05-09T15:43:48.241Z,43.53
2024-05-09T15:46:15.235Z,44.35
2024-05-09T15:48:44.630Z,44.47
2024-05-09T15:51:12.323Z,44.34
2024-05-09T15:53:42.265Z,44.81
2024-05-09T15:56:09.241Z,44.14
2024-05-09T15:58:36.154Z,43.79
2024-05-09T16:01:03.220Z,43.77
2024-05-09T16:03:30.516Z,43.96
2024-05-09T16:05:57.685Z,44.52
2024-05-09T16:08:24.910Z,43.89
2024-05-09T16:10:52.021Z,44.06
2024-05-09T16:13:19.454Z,44.25
2024-05-09T16:15:46.984Z,44.53
2024-05-09T16:18:20.109Z,44.13
2024-05-09T16:20:50.062Z,44.28
2024-05-09T16:23:17.509Z,44.16
2024-05-09T16:25:44.540Z,45.23
2024-05-09T16:28:11.508Z,45.07
2024-05-09T16:30:39.111Z,44.44
2024-05-09T16:33:06.596Z,45.22
2024-05-09T16:35:35.194Z,43.91
2024-05-09T16:40:40.409Z,44.91
2024-05-09T16:43:09.232Z,45.11
2024-05-09T16:45:37.092Z,45.09
2024-05-09T16:48:04.646Z,44.42
2024-05-09T16:50:34.235Z,44.36
2024-05-09T16:53:04.110Z,45.50
2024-05-09T16:55:31.592Z,44.24
2024-05-09T16:57:58.668Z,43.91
2024-05-09T17:00:36.488Z,43.58
2024-05-09T17:03:12.355Z,43.39
2024-05-09T17:05:43.499Z,44.11
2024-05-09T17:08:10.658Z,44.66
2024-05-09T17:10:37.784Z,43.64
2024-05-09T17:13:07.459Z,43.89
2024-05-09T17:15:36.060Z,43.41
2024-05-09T17:18:03.887Z,43.77
2024-05-09T17:20:34.722Z,44.17
2024-05-09T17:23:04.176Z,44.60
2024-05-09T17:25:31.491Z,43.83
2024-05-09T17:27:58.545Z,43.82
2024-05-09T17:30:32.280Z,43.55
2024-05-09T17:33:03.204Z,43.75
2024-05-09T17:35:33.252Z,43.79
2024-05-09T17:38:00.490Z,43.66
2024-05-09T17:40:32.780Z,43.46
2024-05-09T17:43:03.080Z,43.36
2024-05-09T17:45:33.672Z,44.10
2024-05-09T17:48:01.146Z,44.38
2024-05-09T17:50:35.072Z,44.37
2024-05-09T17:53:04.149Z,43.71
2024-05-09T17:55:31.304Z,43.89
2024-05-09T17:57:58.569Z,44.09
2024-05-09T18:00:36.313Z,44.17
2024-05-09T18:03:07.060Z,43.85
2024-05-09T18:05:34.311Z,44.34
2024-05-09T18:08:01.289Z,43.73
2024-05-09T18:10:35.220Z,43.90
2024-05-09T18:13:05.480Z,43.08
2024-05-09T18:15:36.241Z,44.23
2024-05-09T18:18:03.808Z,43.53
2024-05-09T18:20:40.680Z,43.23
2024-05-09T18:23:11.766Z,43.03
2024-05-09T18:25:38.309Z,43.54
2024-05-09T18:28:07.246Z,43.71
2024-05-09T18:30:35.902Z,43.70
2024-05-09T18:33:04.036Z,44.38
2024-05-09T18:35:31.041Z,44.57
2024-05-09T18:37:57.616Z,45.48
2024-05-09T18:40:32.533Z,45.04
2024-05-09T18:43:02.547Z,45.48
2024-05-09T18:45:29.245Z,44.92
2024-05-09T18:47:58.652Z,44.81
2024-05-09T18:50:34.014Z,44.61
2024-05-09T18:53:04.246Z,45.65
2024-05-09T18:55:30.784Z,45.40
2024-05-09T18:57:57.376Z,44.81
2024-05-09T19:00:33.244Z,45.25
2024-05-09T19:03:03.671Z,45.15
2024-05-09T19:05:30.612Z,45.49
2024-05-09T19:07:57.411Z,45.02
2024-05-09T19:10:28.719Z,46.19
2024-05-09T19:12:58.889Z,46.04
2024-05-09T19:15:28.598Z,45.56
2024-05-09T19:17:55.279Z,45.53
2024-05-09T19:20:28.609Z,46.98
2024-05-09T19:23:00.066Z,46.55
2024-05-09T19:25:28.001Z,47.09
2024-05-09T19:27:55.351Z,46.78
2024-05-09T19:30:30.074Z,46.56
2024-05-09T19:33:04.834Z,46.65
2024-05-09T19:35:31.595Z,47.23
2024-05-09T19:37:58.168Z,47.18
2024-05-09T19:40:31.799Z,47.43
2024-05-09T19:43:00.412Z,47.80
2024-05-09T19:45:27.133Z,48.70
2024-05-09T19:47:53.855Z,48.10
2024-05-09T19:50:32.097Z,47.56
2024-05-09T19:53:06.448Z,47.23
2024-05-09T19:55:32.989Z,47.62
2024-05-09T19:58:04.895Z,48.54
2024-05-09T20:00:35.909Z,47.96
2024-05-09T20:03:04.438Z,48.94
2024-05-09T20:05:31.752Z,48.94
2024-05-09T20:07:58.392Z,48.38
2024-05-09T20:10:31.345Z,48.91
2024-05-09T20:13:00.124Z,48.13
2024-05-09T20:15:26.893Z,48.15
2024-05-09T20:17:56.977Z,48.79
2024-05-09T20:20:32.671Z,48.69
2024-05-09T20:23:04.613Z,49.92
2024-05-09T20:25:31.161Z,49.16
2024-05-09T20:27:58.153Z,49.80
2024-05-09T20:30:31.419Z,49.93
2024-05-09T20:33:00.513Z,48.79
2024-05-09T20:35:27.731Z,49.27
2024-05-09T20:37:54.775Z,49.73
2024-05-09T20:40:28.915Z,49.63
2024-05-09T20:43:00.124Z,50.33
2024-05-09T20:45:27.223Z,49.88
2024-05-09T20:47:54.359Z,49.36
2024-05-09T20:50:29.052Z,49.81
2024-05-09T20:53:03.840Z,50.21
2024-05-09T20:55:30.836Z,49.74
2024-05-09T20:57:57.931Z,50.16
2024-05-09T21:00:34.548Z,49.55
2024-05-09T21:03:07.013Z,49.69
2024-05-09T21:05:35.086Z,49.67
2024-05-09T21:08:02.749Z,49.94
2024-05-09T21:10:32.579Z,50.16
2024-05-09T21:13:01.000Z,50.24
2024-05-09T21:15:28.054Z,50.17
2024-05-09T21:17:55.190Z,49.54
2024-05-09T21:20:28.611Z,50.19
2024-05-09T21:22:58.081Z,51.24
2024-05-09T21:25:25.105Z,50.96
2024-05-09T21:27:52.198Z,50.34
2024-05-09T21:30:31.180Z,50.14
2024-05-09T21:33:05.865Z,50.21
2024-05-09T21:35:33.042Z,50.15
2024-05-09T21:38:00.047Z,50.33
2024-05-09T21:40:33.815Z,50.20
2024-05-09T21:43:02.876Z,50.22
2024-05-09T21:45:29.907Z,50.76
2024-05-09T21:47:56.974Z,50.85
2024-05-09T21:50:31.864Z,51.04
2024-05-09T21:53:06.321Z,51.08
2024-05-09T21:55:33.530Z,50.53
2024-05-09T21:58:00.720Z,50.59
2024-05-09T22:00:35.111Z,49.91
2024-05-09T22:03:04.907Z,50.08
2024-05-09T22:05:32.244Z,49.45
2024-05-09T22:07:59.443Z,49.80
2024-05-09T22:10:32.594Z,49.05
2024-05-09T22:13:02.149Z,48.90
2024-05-09T22:15:29.266Z,49.13
2024-05-09T22:17:57.370Z,48.93
2024-05-09T22:20:33.505Z,48.74
2024-05-09T22:23:04.527Z,48.90
2024-05-09T22:25:32.338Z,49.38
2024-05-09T22:27:59.827Z,49.56
2024-05-09T22:30:35.563Z,48.86
2024-05-09T22:33:06.070Z,49.32
2024-05-09T22:35:32.859Z,49.43
2024-05-09T22:37:59.466Z,49.97
2024-05-09T22:40:38.039Z,49.50
2024-05-09T22:43:12.814Z,50.22
2024-05-09T22:45:39.725Z,50.52
2024-05-09T22:48:06.495Z,51.16
2024-05-09T22:50:33.864Z,50.56
2024-05-09T22:53:00.682Z,50.89
2024-05-09T22:55:27.332Z,50.87
2024-05-09T22:57:53.966Z,50.63
2024-05-09T23:00:29.200Z,50.79
2024-05-09T23:02:58.552Z,51.53
2024-05-09T23:05:25.193Z,51.35
2024-05-09T23:07:51.800Z,51.71
2024-05-09T23:10:25.180Z,51.74
2024-05-09T23:12:58.614Z,52.45
2024-05-09T23:15:25.231Z,52.82
2024-05-09T23:17:52.009Z,52.19
2024-05-09T23:20:29.633Z,52.15
2024-05-09T23:23:03.152Z,51.52
2024-05-09T23:25:29.685Z,50.83
2024-05-09T23:27:56.255Z,51.67
2024-05-09T23:30:33.054Z,51.27
2024-05-09T23:33:04.336Z,51.80
2024-05-09T23:35:31.426Z,51.69
2024-05-09T23:37:58.368Z,51.16
2024-05-09T23:40:36.730Z,51.92
2024-05-09T23:43:07.087Z,52.50
2024-05-09T23:45:34.566Z,53.04
2024-05-09T23:48:01.967Z,52.84
2024-05-09T23:52:58.813Z,53.31
2024-05-09T23:55:25.795Z,53.71
2024-05-09T23:57:52.782Z,53.35
